Skidmore, Missouri
Current Conditions -  °F | °C
As of 11:55 AM on Tuesday 21 Oct 2014 (Local Time) from KICL Reporting Station
Clear Clear  
Wind Chill: 68°   Ceiling: Unl
Heat Index: 68°   Visibility: 10mi
Dew Point: 45°   Wind: 0mph
Humidity: 43%   Direction: NA
Pressure: 30.14"   Gusts: NA
Location:  40.29°N, 95.08°W
Report Text: KICL 211655Z AUTO 00000KT 10SM CLR 20/07 A3014 RMK AO2
Loading
Personal Weather Stations






























Interactive Weather Map
Tropical Storm Tracking
New forecast layout! Learn more

10-Day Weather Forecast

Advertisements
Track Severe Weather on mobile